Flight Track Log - Related Links

Times and Time Zones

All times are in EST time to prevent confusion due to time zone crossing. See the UCA597 flight status page for this flight to view local times or setup timezone preferences in your user account.

Time Position Orientation Groundspeed Altitude Reporting Facility
EST Latitude Longitude Course Direction KTS km/h meters Rate Location/Type
Sun 17:29:30 39.0167 -77.4667 339° North 158 293 1,128  Level Potomac TRACON
Sun 17:30:24 39.0500 -77.4833 339° North 159 295 1,615 499 Climbing Potomac TRACON
Sun 17:32:15 39.1147 -77.5283 332° Northwest 168 311 2,499 500 Climbing Washington Center
Sun 17:33:16 39.1606 -77.5242 North 163 303 3,048 514 Climbing Washington Center
Sun 17:34:16 39.2064 -77.5200 North 163 303 3,536 472 Climbing Washington Center
Sun 17:35:16 39.2586 -77.5136 North 163 303 3,993 434 Climbing Washington Center
Sun 17:36:14 39.3047 -77.5067 North 163 303 4,389 307 Climbing Washington Center
Sun 17:37:15 39.3569 -77.5000 North 169 312 4,602 255 Climbing Washington Center
Sun 17:38:16 39.4092 -77.4906 North 174 322 4,907 225 Climbing Washington Center
Sun 17:40:46 39.5647 -77.4689 North 210 389 5,395 199 Climbing New York Center
Sun 17:41:47 39.6217 -77.4556 10° North 223 414 5,608 197 Climbing New York Center
Sun 17:42:47 39.6886 -77.4511 North 218 404 5,791 91 Climbing New York Center
Sun 17:43:47 39.7450 -77.4511 360° North 218 404 5,791  Level New York Center
Sun 17:44:45 39.8158 -77.4525 359° North 223 414 5,791  Level New York Center
Sun 17:45:45 39.8764 -77.4528 360° North 235 435 5,791  Level New York Center
Sun 17:46:46 39.9472 -77.4514 North 235 435 5,791  Level New York Center
Sun 17:47:46 40.0036 -77.4486 North 235 435 5,791  Level New York Center
Sun 17:48:48 40.0706 -77.4469 North 224 415 5,791  Level New York Center
Sun 17:49:45 40.1247 -77.4467 360° North 212 393 5,791  Level New York Center
Sun 17:50:45 40.1853 -77.4444 North 207 383 5,791  Level New York Center
Sun 17:51:46 40.2375 -77.4439 360° North 207 383 5,791  Level New York Center
Sun 17:52:46 40.2928 -77.4628 345° North 202 373 5,791  Level New York Center
Sun 17:53:48 40.3261 -77.4986 321° Northwest 170 315 5,791  Level New York Center
Sun 17:54:45 40.3931 -77.4561 26° Northeast 210 389 5,791  Level New York Center
Sun 17:55:46 40.4497 -77.4153 29° Northeast 241 446 5,791 -45 Level New York Center
Sun 17:56:46 40.5169 -77.3672 29° Northeast 252 467 5,700 -181 Descending New York Center
Sun 17:57:47 40.5758 -77.3208 31° Northeast 260 481 5,425 -257 Descending New York Center
Sun 17:58:47 40.6494 -77.2706 27° Northeast 266 492 5,182 -123 Descending New York Center
Sun 17:59:46 40.7083 -77.2267 29° Northeast 255 472 5,182  Level New York Center
Sun 18:00:46 40.7625 -77.1853 30° Northeast 241 446 5,182  Level New York Center
Sun 18:01:47 40.8211 -77.1442 28° Northeast 236 438 5,182  Level New York Center
Sun 18:02:45 40.8775 -77.1028 29° Northeast 236 438 5,182  Level New York Center
Sun 18:03:46 40.9381 -77.0589 29° Northeast 236 438 5,182  Level New York Center
Sun 18:04:47 40.9989 -77.0150 29° Northeast 236 438 5,182  Level New York Center
Sun 18:05:48 41.0619 -76.9656 31° Northeast 236 438 5,182  Level New York Center
Sun 18:06:45 41.1225 -76.9217 29° Northeast 236 438 5,182 16 Level New York Center
Sun 18:07:46 41.1831 -76.8775 29° Northeast 242 447 5,212 10 Climbing New York Center
Sun 18:09:00 41.2461 -76.8178 35° Northeast  Level FlightAware Approximate
Sun 18:09:45 41.3064 -76.7864 35° Northeast 247 457 5,212  Level New York Center
Sun 18:10:45 41.3650 -76.7419 30° Northeast 247 457 5,212  Level New York Center
Sun 18:11:46 41.4258 -76.6947 30° Northeast 247 457 5,212  Level New York Center
Sun 18:12:47 41.4864 -76.6475 30° Northeast 247 457 5,212 -151 Level New York Center
Sun 18:13:47 41.5425 -76.6053 29° Northeast 247 457 4,907 -387 Descending New York Center
Sun 18:14:45 41.6075 -76.5581 29° Northeast 263 488 4,450 -496 Descending New York Center
Sun 18:15:45 41.6789 -76.5006 31° Northeast 263 488 3,932 -468 Descending New York Center
Sun 18:16:46 41.7414 -76.4558 28° Northeast 263 488 3,505 -450 Descending New York Center
Sun 18:17:47 41.8061 -76.4083 29° Northeast 258 478 3,018 -461 Descending New York Center
Sun 18:18:45 41.8561 -76.3681 31° Northeast 258 478 2,591 -480 Descending New York Center
Sun 18:19:45 41.9153 -76.3006 40° Northeast 245 454 2,073 -488 Descending New York Center
Sun 18:20:45 41.9603 -76.2319 49° Northeast 245 454 1,615 -423 Descending New York Center
Sun 18:21:46 42.0069 -76.1631 48° Northeast 245 454 1,219 -195 Descending New York Center
Sun 18:22:47 42.0408 -76.1044 52° Northeast 233 431 1,219  Level New York Center
Sun 18:23:47 42.0753 -76.0375 55° Northeast 222 410 1,219 -31 Level New York Center
Sun 18:24:45 42.1011 -75.9697 63° Northeast 211 391 1,158 -109 Descending New York Center
Sun 18:25:45 42.1319 -75.9272 46° Northeast 179 332 1,006 -197 Descending New York Center
Sun 18:26:46 42.1628 -75.9381 345° North 118 219 762 -212 Descending New York Center
Sun 18:27:46 42.1869 -75.9594 327° Northwest 99 183 579 -183 Descending New York Center
Sun 18:29:00 42.2084 -75.9796 338° Northwest  Level Estimated
Sun 18:36:00 42.2084 -75.9796 North  Level Estimated
Sun 18:37:00 42.2084 -75.9796 North  Level Estimated
Sun 18:38:00 42.2084 -75.9796 North  Level Estimated

Login

Don't have an account? Register now (free) for customized features, flight alerts, and more!